Main page
Satellite images 15-day forecastsClimateMarine weather Cyclones Lightning AirportsFAQ Newsletter About
Weather : Europe Africa North America South America Asia Australia-Oceania Others
Languages Contact

Bucharest, Romania

Henri Coandă

latitude: 44-33N, longitude: 026-06E, elevation: 95 m


METAR: LROP 301100Z VRB03KT 9999 FEW039 29/16 Q1012 NOSIG
short-TAF: out of date (32482 hours)
long-TAF: LROP 300500Z 3006/3106 07006KT CAVOK

Time: 14:06 (11:06 UTC)

Current weather observation

The report was made 6 minutes ago, at 11:00 UTC  
Wind 03 kt from variable directions
Temperature 29°C
Humidity 45%
Pressure 1012 hPa
Visibility 10 km or more
Few clouds at a height of 3900 ft

Change units

Forecast

The report was made 5 hours and 33 minutes ago, at 05:33 UTC  
Forecast valid from 30 at 06 UTC to 31 at 06 UTC
Wind 06 kt from the East/Northeast
Visibility 10 km or more
no clouds below 1500 m and no cumulonimbus
The information on this site is subject to a disclaimer
Weather : Europe Africa North America South America Asia Australia-Oceania Others
Satellite images 15-day forecastsClimateMarine weather Cyclones Lightning AirportsFAQ Languages Contact Newsletter About